KLM1848 YSSY-NZWN
Flight info
| Callsign | KLM1848 |
|---|---|
| Flight time | 1h 44m |
| Altitude | 37000 |
| Route | DCT CAWLY M636 TANEN DCT SIMZI SIMZI4C |
| Aircraft | B738/M-L/S |
Departure
| Time | 2026-05-04 17:40 |
|---|---|
| Airport | Sydney Kingsford Smith International Airport (YSSY) |
Arrival
| Time | 2026-05-04 19:24 |
|---|---|
| Airport | Wellington International Airport (NZWN) |
| Time | Latitude | Longitude | Altitude | Speed | Heading |
|---|---|---|---|---|---|
| 2026-05-04 17:12 | -33.93513 | 151.17688 | 11 ft | 0 kts | 100° |
| 2026-05-04 17:29 | -33.93513 | 151.17686 | 11 ft | 0 kts | 100° |
| 2026-05-04 17:30 | -33.93505 | 151.17635 | 9 ft | 2 kts | 100° |
| 2026-05-04 17:31 | -33.93500 | 151.17598 | 9 ft | 1 kts | 100° |
| 2026-05-04 17:31 | -33.93485 | 151.17584 | 10 ft | 0 kts | 169° |
| 2026-05-04 17:35 | -33.93646 | 151.17642 | 9 ft | 12 kts | 151° |
| 2026-05-04 17:35 | -33.93787 | 151.17696 | 9 ft | 9 kts | 167° |
| 2026-05-04 17:35 | -33.93837 | 151.17729 | 9 ft | 7 kts | 121° |
| 2026-05-04 17:36 | -33.93834 | 151.17809 | 9 ft | 11 kts | 76° |
| 2026-05-04 17:36 | -33.93811 | 151.17909 | 13 ft | 12 kts | 74° |
| 2026-05-04 17:36 | -33.93785 | 151.18013 | 17 ft | 13 kts | 74° |
| 2026-05-04 17:36 | -33.93758 | 151.18131 | 20 ft | 15 kts | 74° |
| 2026-05-04 17:37 | -33.93729 | 151.18249 | 24 ft | 13 kts | 74° |
| 2026-05-04 17:37 | -33.93702 | 151.18365 | 26 ft | 15 kts | 74° |
| 2026-05-04 17:37 | -33.93670 | 151.18498 | 29 ft | 17 kts | 74° |
| 2026-05-04 17:37 | -33.93635 | 151.18651 | 30 ft | 20 kts | 74° |
| 2026-05-04 17:38 | -33.93598 | 151.18811 | 29 ft | 14 kts | 79° |
| 2026-05-04 17:38 | -33.93614 | 151.18912 | 28 ft | 11 kts | 135° |
| 2026-05-04 17:38 | -33.93685 | 151.18953 | 27 ft | 11 kts | 168° |
| 2026-05-04 17:38 | -33.93751 | 151.18947 | 27 ft | 6 kts | 226° |
| 2026-05-04 17:39 | -33.93796 | 151.18803 | 29 ft | 28 kts | 253° |
| 2026-05-04 17:39 | -33.93957 | 151.18129 | 18 ft | 135 kts | 254° |
| 2026-05-04 17:39 | -33.94279 | 151.16756 | 346 ft | 189 kts | 255° |
| 2026-05-04 17:40 | -33.94590 | 151.15184 | 1284 ft | 211 kts | 260° |
| 2026-05-04 17:40 | -33.94649 | 151.13380 | 2212 ft | 223 kts | 270° |
| 2026-05-04 17:40 | -33.94929 | 151.11508 | 2961 ft | 240 kts | 243° |
| 2026-05-04 17:40 | -33.96099 | 151.10097 | 3984 ft | 250 kts | 206° |
| 2026-05-04 17:41 | -33.97819 | 151.09758 | 4993 ft | 262 kts | 170° |
| 2026-05-04 17:41 | -33.99439 | 151.10698 | 6087 ft | 269 kts | 136° |
| 2026-05-04 17:41 | -34.00370 | 151.12581 | 7172 ft | 275 kts | 103° |
| 2026-05-04 17:41 | -34.00303 | 151.14857 | 8263 ft | 279 kts | 71° |
| 2026-05-04 17:42 | -33.99419 | 151.16898 | 9363 ft | 283 kts | 60° |
| 2026-05-04 17:42 | -33.98688 | 151.19128 | 10261 ft | 294 kts | 81° |
| 2026-05-04 17:42 | -33.98851 | 151.21646 | 10667 ft | 321 kts | 109° |
| 2026-05-04 17:42 | -33.99868 | 151.24112 | 11409 ft | 334 kts | 120° |
| 2026-05-04 17:43 | -34.01024 | 151.26550 | 12201 ft | 345 kts | 119° |
| 2026-05-04 17:43 | -34.02186 | 151.29088 | 13105 ft | 351 kts | 119° |
| 2026-05-04 17:43 | -34.03364 | 151.31662 | 14014 ft | 356 kts | 119° |
| 2026-05-04 17:43 | -34.04579 | 151.34300 | 14910 ft | 361 kts | 119° |
| 2026-05-04 17:44 | -34.05799 | 151.36949 | 15768 ft | 365 kts | 119° |
| 2026-05-04 17:44 | -34.07026 | 151.39618 | 16590 ft | 370 kts | 119° |
| 2026-05-04 17:44 | -34.08264 | 151.42310 | 17382 ft | 374 kts | 119° |
| 2026-05-04 17:44 | -34.09530 | 151.45062 | 18153 ft | 379 kts | 119° |
| 2026-05-04 17:45 | -34.10812 | 151.47852 | 18899 ft | 383 kts | 119° |
| 2026-05-04 17:45 | -34.12109 | 151.50678 | 19621 ft | 387 kts | 119° |
| 2026-05-04 17:45 | -34.13408 | 151.53505 | 20312 ft | 391 kts | 119° |
| 2026-05-04 17:45 | -34.14731 | 151.56384 | 20985 ft | 395 kts | 119° |
| 2026-05-04 17:46 | -34.16063 | 151.59288 | 21631 ft | 399 kts | 119° |
| 2026-05-04 17:46 | -34.17410 | 151.62230 | 22259 ft | 403 kts | 119° |
| 2026-05-04 17:46 | -34.18769 | 151.65198 | 22862 ft | 407 kts | 118° |
| 2026-05-04 17:46 | -34.20130 | 151.68173 | 23442 ft | 410 kts | 118° |
| 2026-05-04 17:47 | -34.21519 | 151.71213 | 24009 ft | 414 kts | 118° |
| 2026-05-04 17:47 | -34.22906 | 151.74251 | 24551 ft | 417 kts | 118° |
| 2026-05-04 17:47 | -34.24310 | 151.77328 | 25078 ft | 421 kts | 118° |
| 2026-05-04 17:47 | -34.25722 | 151.80428 | 25588 ft | 424 kts | 118° |
| 2026-05-04 17:48 | -34.27143 | 151.83548 | 26079 ft | 427 kts | 118° |
| 2026-05-04 17:48 | -34.28585 | 151.86716 | 26557 ft | 431 kts | 118° |
| 2026-05-04 17:48 | -34.30022 | 151.89876 | 27015 ft | 434 kts | 118° |
| 2026-05-04 17:48 | -34.31473 | 151.93068 | 27461 ft | 437 kts | 118° |
| 2026-05-04 17:49 | -34.32935 | 151.96286 | 27893 ft | 440 kts | 119° |
| 2026-05-04 17:49 | -34.34441 | 151.99483 | 28308 ft | 443 kts | 120° |
| 2026-05-04 17:49 | -34.36012 | 152.02707 | 28696 ft | 446 kts | 121° |
| 2026-05-04 17:49 | -34.37584 | 152.05933 | 29131 ft | 448 kts | 120° |
| 2026-05-04 17:50 | -34.39168 | 152.09201 | 29526 ft | 450 kts | 120° |
| 2026-05-04 17:50 | -34.40735 | 152.12439 | 29895 ft | 453 kts | 120° |
| 2026-05-04 17:50 | -34.42341 | 152.15753 | 30260 ft | 455 kts | 120° |
| 2026-05-04 17:50 | -34.43931 | 152.19038 | 30605 ft | 457 kts | 120° |
| 2026-05-04 17:51 | -34.45544 | 152.22371 | 30938 ft | 460 kts | 120° |
| 2026-05-04 17:51 | -34.47150 | 152.25691 | 31389 ft | 459 kts | 120° |
| 2026-05-04 17:51 | -34.48761 | 152.29027 | 31934 ft | 456 kts | 120° |
| 2026-05-04 17:51 | -34.50358 | 152.32335 | 32381 ft | 455 kts | 120° |
| 2026-05-04 17:52 | -34.51955 | 152.35646 | 32844 ft | 454 kts | 120° |
| 2026-05-04 17:52 | -34.53535 | 152.38925 | 33287 ft | 453 kts | 120° |
| 2026-05-04 17:52 | -34.55111 | 152.42198 | 33717 ft | 452 kts | 120° |
| 2026-05-04 17:52 | -34.56683 | 152.45467 | 34138 ft | 451 kts | 120° |
| 2026-05-04 17:53 | -34.58269 | 152.48766 | 34556 ft | 450 kts | 120° |
| 2026-05-04 17:53 | -34.59837 | 152.52029 | 34962 ft | 450 kts | 120° |
| 2026-05-04 17:53 | -34.61404 | 152.55298 | 35361 ft | 449 kts | 120° |
| 2026-05-04 17:53 | -34.62968 | 152.58560 | 35751 ft | 448 kts | 120° |
| 2026-05-04 17:54 | -34.64513 | 152.61787 | 36128 ft | 447 kts | 120° |
| 2026-05-04 17:54 | -34.66084 | 152.65070 | 36478 ft | 447 kts | 120° |
| 2026-05-04 17:54 | -34.67635 | 152.68317 | 36812 ft | 447 kts | 120° |
| 2026-05-04 17:54 | -34.69203 | 152.71599 | 36993 ft | 449 kts | 120° |
| 2026-05-04 17:55 | -34.72340 | 152.78177 | 36999 ft | 451 kts | 120° |
| 2026-05-04 17:55 | -34.75440 | 152.84689 | 37000 ft | 447 kts | 120° |
| 2026-05-04 17:56 | -34.78547 | 152.91228 | 37000 ft | 447 kts | 120° |
| 2026-05-04 17:56 | -34.81648 | 152.97769 | 37000 ft | 448 kts | 120° |
| 2026-05-04 17:57 | -34.84742 | 153.04306 | 37000 ft | 448 kts | 120° |
| 2026-05-04 17:57 | -34.87845 | 153.10875 | 37000 ft | 447 kts | 120° |
| 2026-05-04 17:58 | -34.90922 | 153.17401 | 36999 ft | 447 kts | 120° |
| 2026-05-04 17:58 | -34.94015 | 153.23973 | 36999 ft | 447 kts | 120° |
| 2026-05-04 17:59 | -34.97107 | 153.30554 | 36999 ft | 447 kts | 120° |
| 2026-05-04 18:00 | -35.01723 | 153.40405 | 36999 ft | 447 kts | 120° |
| 2026-05-04 18:00 | -35.04790 | 153.46965 | 36999 ft | 447 kts | 120° |
| 2026-05-04 18:01 | -35.07859 | 153.53543 | 36999 ft | 447 kts | 120° |
| 2026-05-04 18:01 | -35.10922 | 153.60120 | 37000 ft | 447 kts | 120° |
| 2026-05-04 18:02 | -35.15525 | 153.70024 | 36999 ft | 447 kts | 119° |
| 2026-05-04 18:02 | -35.18573 | 153.76601 | 36999 ft | 447 kts | 119° |
| 2026-05-04 18:03 | -35.21641 | 153.83232 | 36999 ft | 447 kts | 119° |
| 2026-05-04 18:03 | -35.24685 | 153.89822 | 36999 ft | 447 kts | 119° |
| 2026-05-04 18:04 | -35.27742 | 153.96455 | 37000 ft | 447 kts | 119° |
| 2026-05-04 18:05 | -35.32306 | 154.06384 | 37000 ft | 447 kts | 119° |
| 2026-05-04 18:05 | -35.35344 | 154.13005 | 37000 ft | 447 kts | 119° |
| 2026-05-04 18:06 | -35.39895 | 154.22954 | 37000 ft | 447 kts | 119° |
| 2026-05-04 18:06 | -35.42911 | 154.29561 | 37000 ft | 447 kts | 119° |
| 2026-05-04 18:07 | -35.45934 | 154.36198 | 37000 ft | 447 kts | 119° |
| 2026-05-04 18:07 | -35.48957 | 154.42848 | 37000 ft | 447 kts | 119° |
| 2026-05-04 18:08 | -35.51987 | 154.49525 | 36999 ft | 447 kts | 119° |
| 2026-05-04 18:08 | -35.54995 | 154.56166 | 36999 ft | 447 kts | 119° |
| 2026-05-04 18:09 | -35.61008 | 154.69492 | 36999 ft | 447 kts | 118° |
| 2026-05-04 18:10 | -35.63813 | 154.76318 | 37000 ft | 447 kts | 116° |
| 2026-05-04 18:10 | -35.66559 | 154.83159 | 37000 ft | 447 kts | 116° |
| 2026-05-04 18:11 | -35.69320 | 154.89972 | 37000 ft | 447 kts | 116° |
| 2026-05-04 18:11 | -35.72094 | 154.96841 | 37000 ft | 447 kts | 116° |
| 2026-05-04 18:12 | -35.74838 | 155.03642 | 37000 ft | 447 kts | 116° |
| 2026-05-04 18:12 | -35.77593 | 155.10484 | 36999 ft | 447 kts | 116° |
| 2026-05-04 18:13 | -35.80359 | 155.17366 | 36999 ft | 447 kts | 116° |
| 2026-05-04 18:14 | -35.84477 | 155.27634 | 36999 ft | 447 kts | 116° |
| 2026-05-04 18:14 | -35.87212 | 155.34473 | 36999 ft | 447 kts | 116° |
| 2026-05-04 18:15 | -35.92696 | 155.48227 | 36999 ft | 447 kts | 116° |
| 2026-05-04 18:16 | -35.95424 | 155.55093 | 36999 ft | 447 kts | 116° |
| 2026-05-04 18:16 | -35.98156 | 155.61981 | 36999 ft | 447 kts | 116° |
| 2026-05-04 18:17 | -36.02237 | 155.72298 | 37000 ft | 447 kts | 116° |
| 2026-05-04 18:18 | -36.06304 | 155.82610 | 37000 ft | 447 kts | 116° |
| 2026-05-04 18:18 | -36.09021 | 155.89519 | 37000 ft | 447 kts | 116° |
| 2026-05-04 18:19 | -36.13077 | 155.99863 | 37000 ft | 447 kts | 116° |
| 2026-05-04 18:19 | -36.15787 | 156.06792 | 37000 ft | 447 kts | 116° |
| 2026-05-04 18:20 | -36.18480 | 156.13690 | 37000 ft | 447 kts | 116° |
| 2026-05-04 18:20 | -36.21183 | 156.20631 | 37000 ft | 447 kts | 116° |
| 2026-05-04 18:21 | -36.23871 | 156.27547 | 37000 ft | 447 kts | 116° |
| 2026-05-04 18:21 | -36.26549 | 156.34454 | 36999 ft | 447 kts | 116° |
| 2026-05-04 18:22 | -36.29236 | 156.41397 | 37000 ft | 447 kts | 116° |
| 2026-05-04 18:22 | -36.31913 | 156.48331 | 37000 ft | 447 kts | 116° |
| 2026-05-04 18:23 | -36.34588 | 156.55275 | 37000 ft | 447 kts | 116° |
| 2026-05-04 18:23 | -36.37246 | 156.62189 | 37000 ft | 447 kts | 116° |
| 2026-05-04 18:24 | -36.39914 | 156.69144 | 36999 ft | 447 kts | 115° |
| 2026-05-04 18:24 | -36.42576 | 156.76100 | 36999 ft | 447 kts | 115° |
| 2026-05-04 18:25 | -36.45233 | 156.83060 | 36999 ft | 447 kts | 115° |
| 2026-05-04 18:25 | -36.47879 | 156.90002 | 36999 ft | 447 kts | 115° |
| 2026-05-04 18:26 | -36.50525 | 156.96959 | 37000 ft | 447 kts | 115° |
| 2026-05-04 18:26 | -36.53169 | 157.03929 | 37000 ft | 447 kts | 115° |
| 2026-05-04 18:27 | -36.55810 | 157.10907 | 36999 ft | 447 kts | 115° |
| 2026-05-04 18:27 | -36.58438 | 157.17864 | 36999 ft | 447 kts | 115° |
| 2026-05-04 18:28 | -36.61068 | 157.24843 | 36999 ft | 447 kts | 115° |
| 2026-05-04 18:28 | -36.63703 | 157.31851 | 36999 ft | 447 kts | 115° |
| 2026-05-04 18:29 | -36.66316 | 157.38814 | 36999 ft | 447 kts | 115° |
| 2026-05-04 18:29 | -36.68937 | 157.45816 | 36999 ft | 447 kts | 115° |
| 2026-05-04 18:30 | -36.72851 | 157.56302 | 36999 ft | 447 kts | 115° |
| 2026-05-04 18:31 | -36.75462 | 157.63316 | 36999 ft | 447 kts | 115° |
| 2026-05-04 18:31 | -36.78065 | 157.70323 | 37000 ft | 447 kts | 115° |
| 2026-05-04 18:32 | -36.80662 | 157.77331 | 37000 ft | 447 kts | 115° |
| 2026-05-04 18:32 | -36.83274 | 157.84395 | 37000 ft | 447 kts | 115° |
| 2026-05-04 18:33 | -36.85855 | 157.91393 | 37000 ft | 447 kts | 115° |
| 2026-05-04 18:33 | -36.88447 | 157.98433 | 37000 ft | 447 kts | 115° |
| 2026-05-04 18:34 | -36.91032 | 158.05472 | 36999 ft | 447 kts | 115° |
| 2026-05-04 18:34 | -36.93614 | 158.12520 | 36999 ft | 447 kts | 115° |
| 2026-05-04 18:35 | -36.96179 | 158.19536 | 36999 ft | 447 kts | 115° |
| 2026-05-04 18:35 | -36.98763 | 158.26621 | 36999 ft | 447 kts | 115° |
| 2026-05-04 18:36 | -37.01326 | 158.33667 | 36999 ft | 447 kts | 115° |
| 2026-05-04 18:36 | -37.03890 | 158.40729 | 36999 ft | 447 kts | 115° |
| 2026-05-04 18:37 | -37.06444 | 158.47781 | 36999 ft | 447 kts | 115° |
| 2026-05-04 18:37 | -37.09004 | 158.54864 | 36999 ft | 447 kts | 115° |
| 2026-05-04 18:38 | -37.11554 | 158.61943 | 37000 ft | 447 kts | 115° |
| 2026-05-04 18:38 | -37.14092 | 158.69000 | 36999 ft | 447 kts | 114° |
| 2026-05-04 18:39 | -37.16656 | 158.76152 | 36999 ft | 447 kts | 114° |
| 2026-05-04 18:39 | -37.55068 | 159.85190 | 36996 ft | 447 kts | 113° |
| 2026-05-04 18:40 | -37.94322 | 161.01236 | 37006 ft | 447 kts | 113° |
| 2026-05-04 18:40 | -38.32066 | 162.17462 | 36989 ft | 447 kts | 112° |
| 2026-05-04 18:41 | -38.68893 | 163.34375 | 36959 ft | 446 kts | 111° |
| 2026-05-04 18:41 | -39.02089 | 164.54591 | 36951 ft | 446 kts | 114° |
| 2026-05-04 18:42 | -39.07377 | 164.71349 | 37000 ft | 446 kts | 107° |
| 2026-05-04 18:42 | -39.09257 | 164.78919 | 37000 ft | 446 kts | 109° |
| 2026-05-04 18:43 | -39.11340 | 164.86682 | 37000 ft | 446 kts | 109° |
| 2026-05-04 18:43 | -39.43322 | 166.05374 | 37018 ft | 446 kts | 109° |
| 2026-05-04 18:44 | -39.73911 | 167.27522 | 37038 ft | 446 kts | 108° |
| 2026-05-04 18:44 | -40.04287 | 168.50546 | 37049 ft | 446 kts | 105° |
| 2026-05-04 18:45 | -40.34304 | 169.73196 | 37026 ft | 445 kts | 107° |
| 2026-05-04 18:45 | -40.49368 | 170.63168 | 37001 ft | 446 kts | 112° |
| 2026-05-04 18:45 | -40.50837 | 170.66745 | 37008 ft | 446 kts | 123° |
| 2026-05-04 18:46 | -40.52511 | 170.70167 | 37000 ft | 446 kts | 121° |
| 2026-05-04 18:46 | -40.55385 | 170.77324 | 37000 ft | 446 kts | 114° |
| 2026-05-04 18:47 | -40.57719 | 170.84853 | 36999 ft | 446 kts | 111° |
| 2026-05-04 18:47 | -40.59870 | 170.92473 | 37000 ft | 446 kts | 110° |
| 2026-05-04 18:48 | -40.80754 | 171.74173 | 37007 ft | 446 kts | 107° |
| 2026-05-04 18:48 | -41.10784 | 172.99092 | 37024 ft | 446 kts | 109° |
| 2026-05-04 18:49 | -41.20061 | 173.38528 | 36999 ft | 445 kts | 101° |
| 2026-05-04 18:49 | -41.21435 | 173.46504 | 37000 ft | 445 kts | 105° |
| 2026-05-04 18:50 | -41.23076 | 173.54414 | 37000 ft | 445 kts | 106° |
| 2026-05-04 18:50 | -41.24769 | 173.62315 | 37000 ft | 445 kts | 107° |
| 2026-05-04 18:51 | -41.26499 | 173.70203 | 36984 ft | 444 kts | 106° |
| 2026-05-04 18:51 | -41.27354 | 173.74077 | 36507 ft | 437 kts | 106° |
| 2026-05-04 18:51 | -41.28201 | 173.77904 | 35869 ft | 433 kts | 106° |
| 2026-05-04 18:51 | -41.29050 | 173.81740 | 35144 ft | 437 kts | 106° |
| 2026-05-04 18:52 | -41.29916 | 173.85646 | 34384 ft | 442 kts | 106° |
| 2026-05-04 18:52 | -41.30777 | 173.89528 | 33596 ft | 441 kts | 106° |
| 2026-05-04 18:52 | -41.31643 | 173.93437 | 32804 ft | 440 kts | 106° |
| 2026-05-04 18:52 | -41.32528 | 173.97327 | 31990 ft | 445 kts | 108° |
| 2026-05-04 18:53 | -41.33544 | 174.01201 | 31143 ft | 449 kts | 110° |
| 2026-05-04 18:53 | -41.34628 | 174.05104 | 30260 ft | 447 kts | 110° |
| 2026-05-04 18:53 | -41.35665 | 174.08910 | 29624 ft | 436 kts | 110° |
| 2026-05-04 18:53 | -41.36668 | 174.12662 | 28999 ft | 436 kts | 109° |
| 2026-05-04 18:54 | -41.37684 | 174.16467 | 28346 ft | 435 kts | 110° |
| 2026-05-04 18:54 | -41.38681 | 174.20204 | 27703 ft | 425 kts | 110° |
| 2026-05-04 18:54 | -41.39657 | 174.23866 | 27076 ft | 422 kts | 109° |
| 2026-05-04 18:54 | -41.40641 | 174.27570 | 26431 ft | 422 kts | 109° |
| 2026-05-04 18:55 | -41.41602 | 174.31195 | 25796 ft | 413 kts | 109° |
| 2026-05-04 18:55 | -41.43486 | 174.38325 | 24546 ft | 410 kts | 109° |
| 2026-05-04 18:55 | -41.44415 | 174.41847 | 23920 ft | 401 kts | 109° |
| 2026-05-04 18:56 | -41.45325 | 174.45306 | 23307 ft | 397 kts | 109° |
| 2026-05-04 18:56 | -41.45934 | 174.47623 | 22897 ft | 400 kts | 109° |
| 2026-05-04 18:56 | -41.47148 | 174.52246 | 22063 ft | 389 kts | 109° |
| 2026-05-04 18:56 | -41.48032 | 174.55617 | 21460 ft | 387 kts | 109° |
| 2026-05-04 18:57 | -41.48914 | 174.58992 | 20852 ft | 387 kts | 109° |
| 2026-05-04 18:57 | -41.49558 | 174.62384 | 20672 ft | 365 kts | 96° |
| 2026-05-04 18:57 | -41.49619 | 174.65651 | 20541 ft | 346 kts | 89° |
| 2026-05-04 18:57 | -41.49598 | 174.68764 | 20435 ft | 328 kts | 90° |
| 2026-05-04 18:58 | -41.49452 | 174.71716 | 20357 ft | 307 kts | 76° |
| 2026-05-04 18:58 | -41.48591 | 174.74181 | 20232 ft | 287 kts | 53° |
| 2026-05-04 18:58 | -41.47381 | 174.76207 | 20142 ft | 269 kts | 51° |
| 2026-05-04 18:58 | -41.46169 | 174.77992 | 19861 ft | 260 kts | 39° |
| 2026-05-04 18:59 | -41.44634 | 174.79160 | 19416 ft | 256 kts | 19° |
| 2026-05-04 18:59 | -41.42924 | 174.79826 | 18898 ft | 254 kts | 14° |
| 2026-05-04 18:59 | -41.41200 | 174.80158 | 18281 ft | 257 kts | 2° |
| 2026-05-04 18:59 | -41.39422 | 174.80225 | 17651 ft | 259 kts | 2° |
| 2026-05-04 19:00 | -41.37612 | 174.80348 | 17017 ft | 259 kts | 3° |
| 2026-05-04 19:00 | -41.35838 | 174.80478 | 16380 ft | 255 kts | 3° |
| 2026-05-04 19:00 | -41.34100 | 174.80597 | 15748 ft | 251 kts | 3° |
| 2026-05-04 19:00 | -41.32400 | 174.80721 | 15297 ft | 239 kts | 3° |
| 2026-05-04 19:01 | -41.30834 | 174.80859 | 15229 ft | 215 kts | 4° |
| 2026-05-04 19:01 | -41.29409 | 174.81071 | 15065 ft | 199 kts | 12° |
| 2026-05-04 19:01 | -41.28097 | 174.81467 | 14835 ft | 188 kts | 12° |
| 2026-05-04 19:01 | -41.26836 | 174.81798 | 14532 ft | 185 kts | 11° |
| 2026-05-04 19:02 | -41.25574 | 174.82124 | 14192 ft | 185 kts | 11° |
| 2026-05-04 19:02 | -41.24306 | 174.82452 | 13942 ft | 191 kts | 11° |
| 2026-05-04 19:02 | -41.22932 | 174.82752 | 13798 ft | 212 kts | 4° |
| 2026-05-04 19:02 | -41.21435 | 174.82722 | 13728 ft | 219 kts | 356° |
| 2026-05-04 19:03 | -41.19929 | 174.82602 | 13932 ft | 218 kts | 357° |
| 2026-05-04 19:03 | -41.18447 | 174.82506 | 13904 ft | 206 kts | 357° |
| 2026-05-04 19:03 | -41.17023 | 174.82407 | 13510 ft | 207 kts | 357° |
| 2026-05-04 19:03 | -41.15596 | 174.82307 | 13156 ft | 205 kts | 357° |
| 2026-05-04 19:04 | -41.14195 | 174.82188 | 12789 ft | 204 kts | 353° |
| 2026-05-04 19:04 | -41.12811 | 174.81782 | 12418 ft | 203 kts | 340° |
| 2026-05-04 19:04 | -41.11548 | 174.80969 | 12052 ft | 202 kts | 326° |
| 2026-05-04 19:04 | -41.10479 | 174.79790 | 11691 ft | 201 kts | 313° |
| 2026-05-04 19:05 | -41.09656 | 174.78302 | 11329 ft | 200 kts | 298° |
| 2026-05-04 19:05 | -41.09139 | 174.76625 | 10975 ft | 199 kts | 284° |
| 2026-05-04 19:05 | -41.08943 | 174.74805 | 10615 ft | 198 kts | 270° |
| 2026-05-04 19:05 | -41.09088 | 174.73013 | 10262 ft | 197 kts | 256° |
| 2026-05-04 19:06 | -41.09562 | 174.71323 | 9910 ft | 196 kts | 242° |
| 2026-05-04 19:06 | -41.10326 | 174.69859 | 9562 ft | 195 kts | 227° |
| 2026-05-04 19:06 | -41.11324 | 174.68672 | 9221 ft | 193 kts | 218° |
| 2026-05-04 19:06 | -41.12398 | 174.67601 | 8877 ft | 192 kts | 216° |
| 2026-05-04 19:07 | -41.13464 | 174.66550 | 8538 ft | 192 kts | 216° |
| 2026-05-04 19:07 | -41.14579 | 174.65590 | 8193 ft | 191 kts | 206° |
| 2026-05-04 19:07 | -41.15807 | 174.64998 | 7857 ft | 190 kts | 192° |
| 2026-05-04 19:07 | -41.17100 | 174.64699 | 7528 ft | 189 kts | 189° |
| 2026-05-04 19:08 | -41.18380 | 174.64409 | 7196 ft | 188 kts | 189° |
| 2026-05-04 19:08 | -41.19658 | 174.64117 | 6866 ft | 187 kts | 189° |
| 2026-05-04 19:08 | -41.20947 | 174.63825 | 6535 ft | 186 kts | 189° |
| 2026-05-04 19:08 | -41.22214 | 174.63536 | 6209 ft | 185 kts | 189° |
| 2026-05-04 19:09 | -41.23463 | 174.63251 | 5888 ft | 184 kts | 189° |
| 2026-05-04 19:09 | -41.24730 | 174.62961 | 5563 ft | 183 kts | 189° |
| 2026-05-04 19:09 | -41.25976 | 174.62718 | 5243 ft | 182 kts | 184° |
| 2026-05-04 19:09 | -41.27237 | 174.62608 | 4926 ft | 181 kts | 183° |
| 2026-05-04 19:10 | -41.28493 | 174.62499 | 4608 ft | 181 kts | 184° |
| 2026-05-04 19:10 | -41.29731 | 174.62390 | 4296 ft | 180 kts | 184° |
| 2026-05-04 19:10 | -41.30971 | 174.62280 | 3983 ft | 179 kts | 184° |
| 2026-05-04 19:10 | -41.32212 | 174.62170 | 3671 ft | 178 kts | 184° |
| 2026-05-04 19:11 | -41.33447 | 174.62061 | 3360 ft | 177 kts | 184° |
| 2026-05-04 19:11 | -41.34659 | 174.61952 | 3056 ft | 177 kts | 184° |
| 2026-05-04 19:11 | -41.35880 | 174.61844 | 2749 ft | 176 kts | 184° |
| 2026-05-04 19:11 | -41.37098 | 174.61736 | 2444 ft | 175 kts | 184° |
| 2026-05-04 19:12 | -41.38310 | 174.61626 | 2140 ft | 174 kts | 184° |
| 2026-05-04 19:12 | -41.40692 | 174.61415 | 1897 ft | 173 kts | 182° |
| 2026-05-04 19:12 | -41.41883 | 174.61360 | 1892 ft | 173 kts | 181° |
| 2026-05-04 19:13 | -41.43091 | 174.61307 | 1891 ft | 173 kts | 181° |
| 2026-05-04 19:13 | -41.44301 | 174.61253 | 1891 ft | 174 kts | 181° |
| 2026-05-04 19:13 | -41.45495 | 174.61200 | 1891 ft | 174 kts | 181° |
| 2026-05-04 19:13 | -41.46718 | 174.61145 | 1891 ft | 174 kts | 181° |
| 2026-05-04 19:14 | -41.47910 | 174.61093 | 1891 ft | 174 kts | 181° |
| 2026-05-04 19:14 | -41.49118 | 174.61038 | 1891 ft | 174 kts | 181° |
| 2026-05-04 19:14 | -41.50323 | 174.60983 | 1891 ft | 174 kts | 181° |
| 2026-05-04 19:14 | -41.51538 | 174.60928 | 1891 ft | 174 kts | 181° |
| 2026-05-04 19:15 | -41.52738 | 174.60945 | 1890 ft | 173 kts | 173° |
| 2026-05-04 19:15 | -41.53843 | 174.61325 | 1879 ft | 155 kts | 156° |
| 2026-05-04 19:15 | -41.54738 | 174.62082 | 1891 ft | 150 kts | 138° |
| 2026-05-04 19:15 | -41.55344 | 174.63080 | 1902 ft | 136 kts | 118° |
| 2026-05-04 19:16 | -41.55632 | 174.64217 | 1880 ft | 122 kts | 96° |
| 2026-05-04 19:16 | -41.55573 | 174.65340 | 1895 ft | 124 kts | 75° |
| 2026-05-04 19:16 | -41.55193 | 174.66367 | 1902 ft | 122 kts | 51° |
| 2026-05-04 19:16 | -41.54587 | 174.67165 | 1878 ft | 123 kts | 42° |
| 2026-05-04 19:17 | -41.53966 | 174.67935 | 1907 ft | 123 kts | 43° |
| 2026-05-04 19:17 | -41.53334 | 174.68721 | 1902 ft | 125 kts | 43° |
| 2026-05-04 19:17 | -41.52685 | 174.69530 | 1879 ft | 127 kts | 43° |
| 2026-05-04 19:17 | -41.52038 | 174.70335 | 1897 ft | 129 kts | 43° |
| 2026-05-04 19:18 | -41.51381 | 174.71153 | 1903 ft | 128 kts | 43° |
| 2026-05-04 19:18 | -41.50726 | 174.71968 | 1894 ft | 128 kts | 43° |
| 2026-05-04 19:18 | -41.50074 | 174.72778 | 1882 ft | 128 kts | 43° |
| 2026-05-04 19:18 | -41.49359 | 174.73506 | 1880 ft | 129 kts | 27° |
| 2026-05-04 19:19 | -41.48544 | 174.73991 | 1899 ft | 129 kts | 23° |
| 2026-05-04 19:19 | -41.47733 | 174.74472 | 1898 ft | 128 kts | 24° |
| 2026-05-04 19:19 | -41.46925 | 174.74986 | 1882 ft | 128 kts | 31° |
| 2026-05-04 19:19 | -41.46220 | 174.75719 | 1890 ft | 129 kts | 41° |
| 2026-05-04 19:20 | -41.45617 | 174.76613 | 1902 ft | 128 kts | 50° |
| 2026-05-04 19:20 | -41.45045 | 174.77524 | 1889 ft | 128 kts | 50° |
| 2026-05-04 19:20 | -41.44473 | 174.78430 | 1885 ft | 129 kts | 50° |
| 2026-05-04 19:20 | -41.43893 | 174.79349 | 1893 ft | 129 kts | 49° |
| 2026-05-04 19:21 | -41.43218 | 174.80122 | 1895 ft | 128 kts | 30° |
| 2026-05-04 19:21 | -41.42377 | 174.80534 | 1774 ft | 130 kts | 9° |
| 2026-05-04 19:21 | -41.41489 | 174.80518 | 1614 ft | 128 kts | 351° |
| 2026-05-04 19:21 | -41.40608 | 174.80385 | 1447 ft | 128 kts | 356° |
| 2026-05-04 19:22 | -41.39728 | 174.80336 | 1276 ft | 127 kts | 359° |
| 2026-05-04 19:22 | -41.38845 | 174.80331 | 1104 ft | 127 kts | 360° |
| 2026-05-04 19:22 | -41.37953 | 174.80350 | 931 ft | 127 kts | 2° |
| 2026-05-04 19:22 | -41.37078 | 174.80399 | 761 ft | 126 kts | 2° |
| 2026-05-04 19:23 | -41.36203 | 174.80455 | 591 ft | 126 kts | 2° |
| 2026-05-04 19:23 | -41.35326 | 174.80513 | 422 ft | 126 kts | 2° |
| 2026-05-04 19:23 | -41.34454 | 174.80571 | 254 ft | 125 kts | 2° |
| 2026-05-04 19:23 | -41.33591 | 174.80629 | 87 ft | 125 kts | 2° |
| 2026-05-04 19:24 | -41.32779 | 174.80682 | 27 ft | 93 kts | 4° |
| 2026-05-04 19:24 | -41.32352 | 174.80713 | 39 ft | 33 kts | 3° |
| 2026-05-04 19:24 | -41.32196 | 174.80727 | 42 ft | 9 kts | 17° |
| 2026-05-04 19:24 | -41.32174 | 174.80812 | 42 ft | 12 kts | 102° |
| 2026-05-04 19:25 | -41.32258 | 174.80847 | 40 ft | 16 kts | 187° |
| 2026-05-04 19:25 | -41.32376 | 174.80839 | 38 ft | 18 kts | 182° |
| 2026-05-04 19:25 | -41.32504 | 174.80829 | 36 ft | 19 kts | 182° |
| 2026-05-04 19:25 | -41.32648 | 174.80821 | 30 ft | 21 kts | 181° |
| 2026-05-04 19:26 | -41.32721 | 174.80864 | 29 ft | 8 kts | 129° |
| 2026-05-04 19:26 | -41.32770 | 174.80891 | 29 ft | 9 kts | 177° |
| 2026-05-04 19:26 | -41.32856 | 174.80885 | 27 ft | 13 kts | 182° |
| 2026-05-04 19:26 | -41.32909 | 174.80934 | 28 ft | 9 kts | 97° |
| 2026-05-04 19:27 | -41.32927 | 174.80992 | 29 ft | 5 kts | 137° |
| 2026-05-04 19:27 | -41.32954 | 174.81017 | 30 ft | 3 kts | 153° |
| 2026-05-04 19:27 | -41.32957 | 174.81018 | 30 ft | 0 kts | 153° |